sensor_id;sensor_type;location;lat;lon;timestamp;P1;durP1;ratioP1;P2;durP2;ratioP2
16673;SDS011;8450;52.654;10.326;2023-04-03T05:58:50;4.10;;;2.27;;
16673;SDS011;8450;52.654;10.326;2023-04-03T06:01:16;5.97;;;2.17;;
16673;SDS011;8450;52.654;10.326;2023-04-03T06:03:42;5.13;;;2.20;;
16673;SDS011;8450;52.654;10.326;2023-04-03T06:06:10;3.57;;;2.10;;
16673;SDS011;8450;52.654;10.326;2023-04-03T06:08:38;4.00;;;2.17;;
16673;SDS011;8450;52.654;10.326;2023-04-03T06:11:04;3.00;;;2.00;;
16673;SDS011;8450;52.654;10.326;2023-04-03T06:13:30;4.20;;;1.90;;
16673;SDS011;8450;52.654;10.326;2023-04-03T06:15:56;4.33;;;2.10;;
16673;SDS011;8450;52.654;10.326;2023-04-03T06:18:22;4.90;;;2.20;;
16673;SDS011;8450;52.654;10.326;2023-04-03T06:20:48;4.57;;;2.03;;
16673;SDS011;8450;52.654;10.326;2023-04-03T06:23:13;3.63;;;2.07;;
16673;SDS011;8450;52.654;10.326;2023-04-03T06:25:39;5.27;;;2.40;;
16673;SDS011;8450;52.654;10.326;2023-04-03T06:28:05;3.37;;;2.10;;
16673;SDS011;8450;52.654;10.326;2023-04-03T06:30:32;5.70;;;2.20;;
16673;SDS011;8450;52.654;10.326;2023-04-03T06:32:58;4.10;;;2.20;;
16673;SDS011;8450;52.654;10.326;2023-04-03T06:35:24;5.60;;;2.30;;
16673;SDS011;8450;52.654;10.326;2023-04-03T06:37:50;8.07;;;2.50;;
16673;SDS011;8450;52.654;10.326;2023-04-03T06:40:18;4.07;;;2.13;;
16673;SDS011;8450;52.654;10.326;2023-04-03T06:42:46;5.23;;;2.57;;
16673;SDS011;8450;52.654;10.326;2023-04-03T06:45:12;5.07;;;2.20;;
16673;SDS011;8450;52.654;10.326;2023-04-03T06:47:37;6.30;;;2.50;;
16673;SDS011;8450;52.654;10.326;2023-04-03T06:50:03;5.37;;;2.43;;
16673;SDS011;8450;52.654;10.326;2023-04-03T06:52:29;4.30;;;2.03;;
16673;SDS011;8450;52.654;10.326;2023-04-03T06:54:55;4.93;;;2.13;;
16673;SDS011;8450;52.654;10.326;2023-04-03T06:57:23;3.53;;;2.20;;
16673;SDS011;8450;52.654;10.326;2023-04-03T06:59:49;4.30;;;2.40;;
16673;SDS011;8450;52.654;10.326;2023-04-03T07:02:15;3.30;;;1.87;;
16673;SDS011;8450;52.654;10.326;2023-04-03T07:04:40;3.63;;;1.80;;
16673;SDS011;8450;52.654;10.326;2023-04-03T07:07:06;4.20;;;2.00;;
16673;SDS011;8450;52.654;10.326;2023-04-03T07:09:32;3.40;;;2.20;;
16673;SDS011;8450;52.654;10.326;2023-04-03T07:11:58;3.33;;;2.00;;
16673;SDS011;8450;52.654;10.326;2023-04-03T07:14:23;3.67;;;1.70;;
16673;SDS011;8450;52.654;10.326;2023-04-03T07:16:49;3.80;;;1.93;;
16673;SDS011;8450;52.654;10.326;2023-04-03T07:19:14;3.20;;;1.70;;
16673;SDS011;8450;52.654;10.326;2023-04-03T07:21:40;1.87;;;1.70;;
16673;SDS011;8450;52.654;10.326;2023-04-03T07:24:07;2.73;;;1.70;;
16673;SDS011;8450;52.654;10.326;2023-04-03T07:26:32;4.57;;;1.60;;
16673;SDS011;8450;52.654;10.326;2023-04-03T07:28:58;3.93;;;1.77;;
16673;SDS011;8450;52.654;10.326;2023-04-03T07:31:24;4.00;;;1.97;;
16673;SDS011;8450;52.654;10.326;2023-04-03T07:33:50;2.17;;;1.53;;
16673;SDS011;8450;52.654;10.326;2023-04-03T07:36:17;2.90;;;1.43;;
16673;SDS011;8450;52.654;10.326;2023-04-03T07:38:44;3.23;;;1.70;;
16673;SDS011;8450;52.654;10.326;2023-04-03T07:41:14;3.90;;;1.50;;
16673;SDS011;8450;52.654;10.326;2023-04-03T07:43:42;2.40;;;1.67;;
16673;SDS011;8450;52.654;10.326;2023-04-03T07:46:08;2.30;;;1.90;;
16673;SDS011;8450;52.654;10.326;2023-04-03T07:48:34;5.23;;;1.70;;
16673;SDS011;8450;52.654;10.326;2023-04-03T07:51:00;2.47;;;1.47;;
16673;SDS011;8450;52.654;10.326;2023-04-03T07:53:27;2.60;;;1.50;;
16673;SDS011;8450;52.654;10.326;2023-04-03T07:55:53;1.57;;;1.43;;
16673;SDS011;8450;52.654;10.326;2023-04-03T07:58:21;1.90;;;1.40;;
16673;SDS011;8450;52.654;10.326;2023-04-03T08:00:47;2.30;;;1.30;;
16673;SDS011;8450;52.654;10.326;2023-04-03T08:03:13;3.03;;;1.67;;
16673;SDS011;8450;52.654;10.326;2023-04-03T08:05:40;1.87;;;1.30;;
16673;SDS011;8450;52.654;10.326;2023-04-03T08:08:06;4.63;;;1.70;;
16673;SDS011;8450;52.654;10.326;2023-04-03T08:10:33;2.23;;;1.47;;
16673;SDS011;8450;52.654;10.326;2023-04-03T08:12:59;3.33;;;1.60;;
16673;SDS011;8450;52.654;10.326;2023-04-03T08:15:25;1.90;;;1.50;;
16673;SDS011;8450;52.654;10.326;2023-04-03T08:17:51;1.70;;;1.30;;
16673;SDS011;8450;52.654;10.326;2023-04-03T08:20:17;3.23;;;1.40;;
16673;SDS011;8450;52.654;10.326;2023-04-03T08:22:43;4.07;;;1.50;;
16673;SDS011;8450;52.654;10.326;2023-04-03T08:25:08;2.23;;;1.50;;
16673;SDS011;8450;52.654;10.326;2023-04-03T08:27:34;2.27;;;1.47;;
16673;SDS011;8450;52.654;10.326;2023-04-03T08:30:00;3.27;;;1.43;;
16673;SDS011;8450;52.654;10.326;2023-04-03T08:32:26;2.37;;;1.50;;
16673;SDS011;8450;52.654;10.326;2023-04-03T08:34:52;1.40;;;1.30;;
16673;SDS011;8450;52.654;10.326;2023-04-03T08:37:17;3.10;;;1.60;;
16673;SDS011;8450;52.654;10.326;2023-04-03T08:39:44;3.03;;;1.70;;
16673;SDS011;8450;52.654;10.326;2023-04-03T08:42:19;3.63;;;1.87;;
16673;SDS011;8450;52.654;10.326;2023-04-03T08:45:38;3.10;;;1.50;;
16673;SDS011;8450;52.654;10.326;2023-04-03T08:48:10;4.50;;;1.53;;
16673;SDS011;8450;52.654;10.326;2023-04-03T08:50:41;2.93;;;1.53;;
16673;SDS011;8450;52.654;10.326;2023-04-03T08:53:15;1.93;;;1.23;;
16673;SDS011;8450;52.654;10.326;2023-04-03T08:55:45;3.17;;;1.20;;
16673;SDS011;8450;52.654;10.326;2023-04-03T08:58:16;2.43;;;1.60;;
16673;SDS011;8450;52.654;10.326;2023-04-03T09:00:56;3.27;;;1.67;;
16673;SDS011;8450;52.654;10.326;2023-04-03T09:03:29;2.23;;;1.30;;
16673;SDS011;8450;52.654;10.326;2023-04-03T09:06:00;2.50;;;1.40;;
16673;SDS011;8450;52.654;10.326;2023-04-03T09:08:50;2.13;;;1.43;;
16673;SDS011;8450;52.654;10.326;2023-04-03T09:11:53;2.93;;;1.50;;
16673;SDS011;8450;52.654;10.326;2023-04-03T09:14:42;4.23;;;1.50;;
16673;SDS011;8450;52.654;10.326;2023-04-03T09:20:02;4.77;;;1.33;;
16673;SDS011;8450;52.654;10.326;2023-04-03T09:22:33;2.50;;;1.27;;
16673;SDS011;8450;52.654;10.326;2023-04-03T09:25:13;1.50;;;1.27;;
16673;SDS011;8450;52.654;10.326;2023-04-03T09:27:44;3.40;;;1.60;;
16673;SDS011;8450;52.654;10.326;2023-04-03T09:30:17;2.53;;;1.30;;
16673;SDS011;8450;52.654;10.326;2023-04-03T09:32:50;1.97;;;1.63;;
16673;SDS011;8450;52.654;10.326;2023-04-03T09:35:27;1.87;;;1.30;;
16673;SDS011;8450;52.654;10.326;2023-04-03T09:38:00;1.67;;;1.40;;
16673;SDS011;8450;52.654;10.326;2023-04-03T09:40:39;2.17;;;1.30;;
16673;SDS011;8450;52.654;10.326;2023-04-03T09:45:49;2.27;;;1.60;;
16673;SDS011;8450;52.654;10.326;2023-04-03T09:48:20;4.10;;;1.43;;
16673;SDS011;8450;52.654;10.326;2023-04-03T09:53:34;3.63;;;1.70;;
16673;SDS011;8450;52.654;10.326;2023-04-03T09:56:03;5.17;;;1.73;;
16673;SDS011;8450;52.654;10.326;2023-04-03T09:58:40;2.53;;;1.57;;
16673;SDS011;8450;52.654;10.326;2023-04-03T10:01:23;3.87;;;1.33;;
16673;SDS011;8450;52.654;10.326;2023-04-03T10:04:05;2.67;;;1.60;;
16673;SDS011;8450;52.654;10.326;2023-04-03T10:06:32;3.93;;;1.50;;
16673;SDS011;8450;52.654;10.326;2023-04-03T10:09:10;1.53;;;1.27;;
16673;SDS011;8450;52.654;10.326;2023-04-03T10:12:00;1.73;;;1.20;;
16673;SDS011;8450;52.654;10.326;2023-04-03T10:14:42;1.90;;;1.43;;
16673;SDS011;8450;52.654;10.326;2023-04-03T10:17:37;2.37;;;1.13;;
16673;SDS011;8450;52.654;10.326;2023-04-03T10:23:00;1.97;;;1.20;;
16673;SDS011;8450;52.654;10.326;2023-04-03T10:25:40;2.60;;;1.10;;
16673;SDS011;8450;52.654;10.326;2023-04-03T10:36:53;3.40;;;1.50;;
16673;SDS011;8450;52.654;10.326;2023-04-03T10:45:14;1.70;;;1.10;;
16673;SDS011;8450;52.654;10.326;2023-04-03T10:48:11;1.30;;;1.20;;
16673;SDS011;8450;52.654;10.326;2023-04-03T10:51:00;4.27;;;1.30;;
16673;SDS011;8450;52.654;10.326;2023-04-03T11:04:57;1.30;;;1.13;;
16673;SDS011;8450;52.654;10.326;2023-04-03T11:07:32;3.47;;;1.20;;
16673;SDS011;8450;52.654;10.326;2023-04-03T11:10:03;2.67;;;1.30;;
16673;SDS011;8450;52.654;10.326;2023-04-03T11:15:38;1.77;;;1.30;;
16673;SDS011;8450;52.654;10.326;2023-04-03T11:18:05;2.63;;;1.60;;
16673;SDS011;8450;52.654;10.326;2023-04-03T11:20:34;1.97;;;1.40;;
16673;SDS011;8450;52.654;10.326;2023-04-03T11:23:08;1.83;;;1.13;;
16673;SDS011;8450;52.654;10.326;2023-04-03T11:25:49;3.20;;;1.60;;
16673;SDS011;8450;52.654;10.326;2023-04-03T11:28:19;3.57;;;1.57;;
16673;SDS011;8450;52.654;10.326;2023-04-03T11:33:47;3.10;;;1.43;;
16673;SDS011;8450;52.654;10.326;2023-04-03T11:36:24;4.10;;;1.30;;
16673;SDS011;8450;52.654;10.326;2023-04-03T11:38:55;1.40;;;1.30;;
16673;SDS011;8450;52.654;10.326;2023-04-03T11:41:25;1.67;;;1.17;;
16673;SDS011;8450;52.654;10.326;2023-04-03T11:44:01;2.10;;;1.30;;
16673;SDS011;8450;52.654;10.326;2023-04-03T11:58:02;1.50;;;1.40;;
16673;SDS011;8450;52.654;10.326;2023-04-03T12:05:53;2.10;;;1.50;;
16673;SDS011;8450;52.654;10.326;2023-04-03T12:13:38;2.97;;;1.50;;
16673;SDS011;8450;52.654;10.326;2023-04-03T12:16:06;1.70;;;1.47;;
16673;SDS011;8450;52.654;10.326;2023-04-03T12:18:44;1.80;;;1.33;;
16673;SDS011;8450;52.654;10.326;2023-04-03T12:26:46;2.93;;;1.50;;
16673;SDS011;8450;52.654;10.326;2023-04-03T12:29:28;1.93;;;1.23;;
16673;SDS011;8450;52.654;10.326;2023-04-03T12:32:17;1.37;;;1.27;;
16673;SDS011;8450;52.654;10.326;2023-04-03T12:35:12;4.30;;;1.50;;
16673;SDS011;8450;52.654;10.326;2023-04-03T12:38:15;2.77;;;1.43;;
16673;SDS011;8450;52.654;10.326;2023-04-03T12:43:59;2.90;;;1.50;;
16673;SDS011;8450;52.654;10.326;2023-04-03T12:46:47;4.17;;;1.60;;
16673;SDS011;8450;52.654;10.326;2023-04-03T12:52:04;1.43;;;1.20;;
16673;SDS011;8450;52.654;10.326;2023-04-03T12:54:42;2.13;;;1.30;;
16673;SDS011;8450;52.654;10.326;2023-04-03T12:59:46;3.87;;;1.40;;
16673;SDS011;8450;52.654;10.326;2023-04-03T13:02:28;2.73;;;1.40;;
16673;SDS011;8450;52.654;10.326;2023-04-03T13:04:56;2.03;;;1.40;;
16673;SDS011;8450;52.654;10.326;2023-04-03T13:07:31;1.40;;;1.13;;
16673;SDS011;8450;52.654;10.326;2023-04-03T13:10:20;1.83;;;1.33;;
16673;SDS011;8450;52.654;10.326;2023-04-03T13:12:46;1.73;;;1.20;;
16673;SDS011;8450;52.654;10.326;2023-04-03T13:15:24;2.83;;;1.30;;
16673;SDS011;8450;52.654;10.326;2023-04-03T13:17:52;1.40;;;1.23;;
16673;SDS011;8450;52.654;10.326;2023-04-03T13:20:26;2.37;;;1.27;;
16673;SDS011;8450;52.654;10.326;2023-04-03T13:22:59;2.10;;;1.20;;
16673;SDS011;8450;52.654;10.326;2023-04-03T13:25:28;2.27;;;1.43;;
16673;SDS011;8450;52.654;10.326;2023-04-03T13:27:57;1.70;;;1.47;;
16673;SDS011;8450;52.654;10.326;2023-04-03T13:30:31;2.13;;;1.47;;
16673;SDS011;8450;52.654;10.326;2023-04-03T13:33:02;1.67;;;1.40;;
16673;SDS011;8450;52.654;10.326;2023-04-03T13:35:35;3.20;;;1.33;;
16673;SDS011;8450;52.654;10.326;2023-04-03T13:38:07;3.03;;;1.27;;
16673;SDS011;8450;52.654;10.326;2023-04-03T13:40:49;1.93;;;1.53;;
16673;SDS011;8450;52.654;10.326;2023-04-03T13:43:22;2.37;;;1.30;;
16673;SDS011;8450;52.654;10.326;2023-04-03T13:46:01;1.73;;;1.30;;
16673;SDS011;8450;52.654;10.326;2023-04-03T13:48:40;1.57;;;1.40;;
16673;SDS011;8450;52.654;10.326;2023-04-03T13:53:47;1.40;;;1.27;;
16673;SDS011;8450;52.654;10.326;2023-04-03T13:56:33;2.20;;;1.40;;
16673;SDS011;8450;52.654;10.326;2023-04-03T13:59:21;3.50;;;1.33;;
16673;SDS011;8450;52.654;10.326;2023-04-03T14:04:29;3.07;;;1.73;;
16673;SDS011;8450;52.654;10.326;2023-04-03T14:06:56;1.60;;;1.30;;
16673;SDS011;8450;52.654;10.326;2023-04-03T14:09:23;1.70;;;1.40;;
16673;SDS011;8450;52.654;10.326;2023-04-03T14:11:52;1.87;;;1.60;;
16673;SDS011;8450;52.654;10.326;2023-04-03T14:14:21;2.40;;;1.47;;
16673;SDS011;8450;52.654;10.326;2023-04-03T14:16:53;3.10;;;1.53;;
16673;SDS011;8450;52.654;10.326;2023-04-03T14:19:30;2.13;;;1.33;;
16673;SDS011;8450;52.654;10.326;2023-04-03T14:21:58;1.97;;;1.40;;
16673;SDS011;8450;52.654;10.326;2023-04-03T14:24:24;1.60;;;1.30;;
16673;SDS011;8450;52.654;10.326;2023-04-03T14:26:51;1.80;;;1.40;;
16673;SDS011;8450;52.654;10.326;2023-04-03T14:29:18;2.03;;;1.60;;
16673;SDS011;8450;52.654;10.326;2023-04-03T14:31:46;3.83;;;1.47;;
16673;SDS011;8450;52.654;10.326;2023-04-03T14:34:12;1.83;;;1.13;;
16673;SDS011;8450;52.654;10.326;2023-04-03T14:36:39;3.47;;;1.40;;
16673;SDS011;8450;52.654;10.326;2023-04-03T14:39:06;1.57;;;1.33;;
16673;SDS011;8450;52.654;10.326;2023-04-03T14:41:35;2.13;;;1.40;;
16673;SDS011;8450;52.654;10.326;2023-04-03T14:44:01;2.73;;;2.50;;
16673;SDS011;8450;52.654;10.326;2023-04-03T14:46:29;2.53;;;1.50;;
16673;SDS011;8450;52.654;10.326;2023-04-03T14:48:57;2.67;;;1.40;;
16673;SDS011;8450;52.654;10.326;2023-04-03T14:51:23;2.73;;;1.50;;
16673;SDS011;8450;52.654;10.326;2023-04-03T14:53:49;1.83;;;1.30;;
16673;SDS011;8450;52.654;10.326;2023-04-03T14:56:21;1.53;;;1.20;;
16673;SDS011;8450;52.654;10.326;2023-04-03T14:58:50;2.43;;;1.60;;
16673;SDS011;8450;52.654;10.326;2023-04-03T15:01:20;3.43;;;1.87;;
16673;SDS011;8450;52.654;10.326;2023-04-03T15:03:46;3.03;;;1.47;;
16673;SDS011;8450;52.654;10.326;2023-04-03T15:06:11;2.37;;;1.60;;
16673;SDS011;8450;52.654;10.326;2023-04-03T15:08:38;2.07;;;1.43;;
16673;SDS011;8450;52.654;10.326;2023-04-03T15:11:06;2.17;;;1.50;;
16673;SDS011;8450;52.654;10.326;2023-04-03T15:13:33;2.63;;;1.60;;
16673;SDS011;8450;52.654;10.326;2023-04-03T15:15:58;2.03;;;1.33;;
16673;SDS011;8450;52.654;10.326;2023-04-03T15:18:25;3.03;;;1.63;;
16673;SDS011;8450;52.654;10.326;2023-04-03T15:20:53;3.57;;;1.40;;
16673;SDS011;8450;52.654;10.326;2023-04-03T15:23:20;2.97;;;1.63;;
16673;SDS011;8450;52.654;10.326;2023-04-03T15:25:51;2.50;;;1.50;;
16673;SDS011;8450;52.654;10.326;2023-04-03T15:28:29;2.60;;;1.57;;
16673;SDS011;8450;52.654;10.326;2023-04-03T15:31:04;2.50;;;1.70;;
16673;SDS011;8450;52.654;10.326;2023-04-03T15:33:29;2.57;;;1.53;;
16673;SDS011;8450;52.654;10.326;2023-04-03T15:35:55;2.03;;;1.47;;
16673;SDS011;8450;52.654;10.326;2023-04-03T15:38:21;2.77;;;1.57;;
16673;SDS011;8450;52.654;10.326;2023-04-03T15:40:47;1.90;;;1.40;;
16673;SDS011;8450;52.654;10.326;2023-04-03T15:43:13;2.47;;;1.50;;
16673;SDS011;8450;52.654;10.326;2023-04-03T15:45:39;2.23;;;1.63;;
16673;SDS011;8450;52.654;10.326;2023-04-03T15:48:06;2.40;;;1.50;;
16673;SDS011;8450;52.654;10.326;2023-04-03T15:50:33;2.43;;;1.63;;
16673;SDS011;8450;52.654;10.326;2023-04-03T15:52:59;2.70;;;1.70;;
16673;SDS011;8450;52.654;10.326;2023-04-03T15:55:26;2.23;;;1.40;;
16673;SDS011;8450;52.654;10.326;2023-04-03T15:57:54;2.27;;;1.43;;
16673;SDS011;8450;52.654;10.326;2023-04-03T16:00:21;3.90;;;1.50;;
16673;SDS011;8450;52.654;10.326;2023-04-03T16:02:48;2.93;;;1.90;;
16673;SDS011;8450;52.654;10.326;2023-04-03T16:05:17;3.23;;;1.67;;
16673;SDS011;8450;52.654;10.326;2023-04-03T16:07:44;1.87;;;1.57;;
16673;SDS011;8450;52.654;10.326;2023-04-03T16:10:11;2.30;;;1.43;;
16673;SDS011;8450;52.654;10.326;2023-04-03T16:12:37;2.70;;;1.63;;
16673;SDS011;8450;52.654;10.326;2023-04-03T16:15:03;1.63;;;1.47;;
16673;SDS011;8450;52.654;10.326;2023-04-03T16:17:29;2.07;;;1.33;;
16673;SDS011;8450;52.654;10.326;2023-04-03T16:19:55;2.73;;;1.80;;
16673;SDS011;8450;52.654;10.326;2023-04-03T16:22:21;2.50;;;1.77;;
16673;SDS011;8450;52.654;10.326;2023-04-03T16:24:48;2.73;;;1.70;;
16673;SDS011;8450;52.654;10.326;2023-04-03T16:27:14;2.43;;;2.07;;
16673;SDS011;8450;52.654;10.326;2023-04-03T16:29:40;3.23;;;1.87;;
16673;SDS011;8450;52.654;10.326;2023-04-03T16:32:06;2.50;;;1.87;;
16673;SDS011;8450;52.654;10.326;2023-04-03T16:34:32;2.90;;;2.23;;
16673;SDS011;8450;52.654;10.326;2023-04-03T16:36:58;3.33;;;1.80;;
16673;SDS011;8450;52.654;10.326;2023-04-03T16:39:24;3.10;;;1.80;;
16673;SDS011;8450;52.654;10.326;2023-04-03T16:41:50;3.10;;;1.70;;
16673;SDS011;8450;52.654;10.326;2023-04-03T16:44:16;3.47;;;1.90;;
16673;SDS011;8450;52.654;10.326;2023-04-03T16:46:41;3.13;;;1.90;;
16673;SDS011;8450;52.654;10.326;2023-04-03T16:49:07;2.57;;;2.07;;
16673;SDS011;8450;52.654;10.326;2023-04-03T16:51:32;2.03;;;1.50;;
16673;SDS011;8450;52.654;10.326;2023-04-03T16:53:58;3.40;;;1.80;;
16673;SDS011;8450;52.654;10.326;2023-04-03T16:56:24;2.40;;;1.83;;
16673;SDS011;8450;52.654;10.326;2023-04-03T16:58:51;4.80;;;2.20;;
16673;SDS011;8450;52.654;10.326;2023-04-03T17:01:19;4.33;;;2.23;;
16673;SDS011;8450;52.654;10.326;2023-04-03T17:03:45;3.23;;;2.20;;
16673;SDS011;8450;52.654;10.326;2023-04-03T17:06:11;2.77;;;1.90;;
16673;SDS011;8450;52.654;10.326;2023-04-03T17:08:45;2.93;;;2.17;;
16673;SDS011;8450;52.654;10.326;2023-04-03T17:11:25;4.77;;;2.33;;
16673;SDS011;8450;52.654;10.326;2023-04-03T17:13:51;4.73;;;2.20;;
16673;SDS011;8450;52.654;10.326;2023-04-03T17:16:16;2.83;;;1.93;;
16673;SDS011;8450;52.654;10.326;2023-04-03T17:18:42;3.83;;;2.40;;
